Terminal Aerodrome Forecast
Issued by NWS Buffalo, NY

Home | Current Version | Previous Version | Text Only | Print | Product List | Glossary On
Versions: 1 2 3 4 5 6 7 8 9 10 11 12 13 14 15 16 17 18 19 20 21 22 23 24 25
000
FTUS41 KBUF 222300 RRA
TAFBUF
TAF
KBUF 222343Z 2300/2324 09005KT P6SM BKN040 OVC200
     FM230600 VRB03KT P6SM BKN035 OVC130
     FM231200 VRB03KT P6SM BKN040 OVC120
     FM231400 11005KT P6SM BKN050 OVC120
     FM232200 15006KT P6SM BKN050 OVC120=

USA.gov is the U.S. government's official web portal to all federal, state and local government web resources and services.